WSSL/XSP METAR and TAF weather

Enter ICAO airport designator
Station Type Date Time Source
WSSL METAR 2022/01/26 07:00 UTC NOAA

WSSL 260700Z 02009KT 350V060 9999 FEW020 BKN300 33/22 Q1008


Station Type Date Time Source
WSSL Decoded METAR 2022/01/26 07:00 UTC NOAA

Station name not available
Jan 26, 2022 - 02:00 AM EST / 2022.01.26 0700 UTC
Wind: from the NNE (020 degrees) at 10 MPH (9 KT) (direction variable):0
Visibility: greater than 7 mile(s):0
Sky conditions: mostly cloudy
Temperature: 91 F (33 C)
Heat index: 97.5 F (36.4 C):1
Dew Point: 71 F (22 C)
Relative Humidity: 52%
Pressure (altimeter): 29.77 in. Hg (1008 hPa)
ob: WSSL 260700Z 02009KT 350V060 9999 FEW020 BKN300 33/22 Q1008
cycle: 7

Station Type Date Time Source
WSSL TAF 2022/01/26 06:09 UTC NOAA

TAF WSSL 260500Z 2606/2712 02010KT 9999 FEW015 SCT020

Example: see airport list